Time;durP1;ratioP1;P1;durP2;ratioP2;P2;SDS_P1;SDS_P2;PMS_P1;PMS_P2;Temp;Humidity;BMP_temperature;BMP_pressure;BME280_temperature;BME280_humidity;BME280_pressure;Samples;Min_cycle;Max_cycle;Signal;HPM_P1;HPM_P2
2022/08/30 00:01:31;;;;;;;4.18;2.20;;;25.50;34.30;;;;;;5095636;28;20031;-88
2022/08/30 00:03:58;;;;;;;4.75;2.35;;;25.40;39.50;;;;;;5095273;28;20063;-87
2022/08/30 00:06:25;;;;;;;6.00;2.10;;;25.40;38.20;;;;;;5077372;28;20093;-87
2022/08/30 00:08:51;;;;;;;3.35;2.10;;;25.40;37.10;;;;;;5095209;28;20028;-87
2022/08/30 00:11:21;;;;;;;2.58;2.10;;;25.40;44.80;;;;;;5095482;28;20039;-87
2022/08/30 00:13:50;;;;;;;2.35;1.90;;;25.50;38.50;;;;;;5095077;28;20062;-87
2022/08/30 00:16:17;;;;;;;3.53;2.20;;;25.40;52.90;;;;;;5095426;28;20024;-87
2022/08/30 00:18:43;;;;;;;3.08;2.30;;;25.40;37.90;;;;;;5094988;28;20032;-87
2022/08/30 00:21:09;;;;;;;4.20;2.25;;;25.30;34.10;;;;;;5095233;28;20362;-88
2022/08/30 00:23:36;;;;;;;6.78;2.30;;;25.30;35.30;;;;;;5095202;28;20036;-87
2022/08/30 00:26:02;;;;;;;3.10;1.90;;;25.30;23.70;;;;;;5095045;28;20031;-87
2022/08/30 00:28:29;;;;;;;4.28;2.05;;;25.20;12.90;;;;;;5076698;28;20530;-87
2022/08/30 00:30:54;;;;;;;3.72;2.40;;;25.30;20.80;;;;;;5094615;28;20536;-86
2022/08/30 00:33:21;;;;;;;3.72;2.15;;;25.20;25.10;;;;;;5094663;28;20040;-87
2022/08/30 00:35:46;;;;;;;3.50;2.25;;;25.10;42.90;;;;;;5094934;28;20392;-88
2022/08/30 00:38:13;;;;;;;4.72;2.28;;;25.30;26.70;;;;;;5094728;28;20118;-87
2022/08/30 00:40:42;;;;;;;4.78;2.20;;;25.30;23.70;;;;;;5094389;28;20055;-88
2022/08/30 00:43:12;;;;;;;4.20;2.20;;;25.30;35.00;;;;;;5094880;28;20484;-87
2022/08/30 00:45:38;;;;;;;3.67;2.45;;;25.30;33.80;;;;;;5094734;28;20039;-88
2022/08/30 00:48:05;;;;;;;3.58;2.20;;;25.20;25.00;;;;;;5094331;28;20024;-87
2022/08/30 00:50:41;;;;;;;2.80;2.15;;;25.30;30.40;;;;;;5094697;28;20081;-87
2022/08/30 00:53:12;;;;;;;2.92;1.90;;;25.20;32.30;;;;;;5094725;28;20749;-87
2022/08/30 00:55:39;;;;;;;4.05;2.10;;;25.30;27.50;;;;;;5094518;28;20103;-87
2022/08/30 00:58:07;;;;;;;3.80;2.00;;;25.20;29.30;;;;;;5094504;28;20028;-87
2022/08/30 01:00:33;;;;;;;2.55;2.22;;;25.20;30.20;;;;;;5094463;28;20056;-87
2022/08/30 01:02:58;;;;;;;3.08;2.22;;;25.10;26.40;;;;;;5093987;28;20031;-87
2022/08/30 01:05:24;;;;;;;3.75;2.13;;;25.10;18.90;;;;;;5094562;28;20025;-87
2022/08/30 01:07:50;;;;;;;2.33;2.13;;;25.20;20.50;;;;;;5076268;28;20123;-87
2022/08/30 01:10:16;;;;;;;4.07;2.45;;;25.10;32.10;;;;;;5094200;28;20447;-87
2022/08/30 01:12:43;;;;;;;3.80;2.10;;;25.10;33.50;;;;;;5094197;28;20370;-87
2022/08/30 01:15:13;;;;;;;4.70;2.20;;;25.10;37.20;;;;;;5093663;28;20035;-87
2022/08/30 01:17:40;;;;;;;4.05;2.08;;;25.10;39.70;;;;;;5075934;28;20028;-87
2022/08/30 01:20:29;;;;;;;3.63;2.05;;;25.10;32.50;;;;;;5093967;28;20496;-87
2022/08/30 01:23:05;;;;;;;3.35;2.15;;;25.10;41.10;;;;;;5080486;28;20028;-87
2022/08/30 01:25:33;;;;;;;3.60;1.98;;;25.00;36.60;;;;;;5093892;28;20484;-87
2022/08/30 01:28:12;;;;;;;3.42;2.10;;;25.00;41.40;;;;;;5093954;28;20028;-87
2022/08/30 01:30:39;;;;;;;3.20;2.00;;;25.00;38.40;;;;;;5093242;28;20040;-87
2022/08/30 01:33:05;;;;;;;3.67;2.30;;;25.10;38.20;;;;;;5093824;28;20028;-87
2022/08/30 01:35:52;;;;;;;4.15;2.10;;;24.90;36.90;;;;;;5075596;28;20035;-87
2022/08/30 01:38:21;;;;;;;3.30;2.25;;;25.00;41.30;;;;;;5093560;28;20026;-87
2022/08/30 01:40:47;;;;;;;3.70;2.17;;;25.00;38.70;;;;;;5093661;28;20025;-87
2022/08/30 01:43:14;;;;;;;3.10;2.45;;;24.90;21.20;;;;;;5093627;28;20024;-87
2022/08/30 01:45:40;;;;;;;4.47;2.60;;;24.90;21.20;;;;;;5093306;28;20028;-87
2022/08/30 01:48:07;;;;;;;4.30;2.10;;;24.90;18.20;;;;;;5092140;28;20035;-87
2022/08/30 01:50:33;;;;;;;4.00;2.10;;;25.00;22.10;;;;;;5093667;28;20431;-87
2022/08/30 01:52:59;;;;;;;4.78;2.50;;;24.90;9.10;;;;;;5092622;28;20027;-87
2022/08/30 01:55:25;;;;;;;5.05;2.65;;;24.90;16.60;;;;;;5093366;28;20085;-87
2022/08/30 01:57:51;;;;;;;5.07;2.30;;;24.90;24.20;;;;;;5093303;28;20443;-87
2022/08/30 02:00:17;;;;;;;2.58;2.15;;;25.00;30.20;;;;;;5074802;28;20085;-87
2022/08/30 02:02:43;;;;;;;3.47;2.20;;;24.90;44.90;;;;;;5093105;28;20092;-87
2022/08/30 02:05:09;;;;;;;4.13;2.55;;;24.80;40.70;;;;;;5093205;28;20062;-87
2022/08/30 02:07:35;;;;;;;2.78;2.35;;;24.70;37.10;;;;;;5093225;28;20032;-87
2022/08/30 02:10:01;;;;;;;3.50;2.10;;;24.70;31.60;;;;;;5093221;28;20595;-87
2022/08/30 02:12:27;;;;;;;3.35;2.25;;;24.60;27.90;;;;;;5093065;28;20032;-87
2022/08/30 02:14:53;;;;;;;3.95;2.30;;;24.70;37.40;;;;;;5092583;28;20031;-87
2022/08/30 02:17:18;;;;;;;3.05;2.13;;;24.70;21.50;;;;;;5093064;28;20024;-87
2022/08/30 02:19:44;;;;;;;4.70;2.60;;;24.70;10.30;;;;;;5092932;28;20017;-87
2022/08/30 02:22:10;;;;;;;3.65;2.28;;;24.70;31.90;;;;;;5092980;28;20412;-87
2022/08/30 02:24:36;;;;;;;3.65;2.33;;;24.70;26.40;;;;;;5093029;28;20020;-87
2022/08/30 02:27:03;;;;;;;2.78;2.30;;;24.60;25.50;;;;;;5092887;28;20500;-87
2022/08/30 02:29:29;;;;;;;8.15;2.30;;;24.70;26.90;;;;;;5092399;28;20476;-87
2022/08/30 02:31:55;;;;;;;2.88;2.25;;;24.70;26.40;;;;;;5092837;28;20052;-87
2022/08/30 02:34:20;;;;;;;2.75;2.40;;;24.60;14.00;;;;;;5092806;28;20028;-87
2022/08/30 02:36:46;;;;;;;4.25;2.60;;;24.50;21.00;;;;;;5092770;28;20077;-87
2022/08/30 02:39:13;;;;;;;4.57;2.72;;;24.50;16.20;;;;;;5092684;28;20519;-87
2022/08/30 02:41:40;;;;;;;2.75;2.47;;;24.50;21.20;;;;;;5092848;28;20480;-87
2022/08/30 02:44:07;;;;;;;3.90;2.58;;;24.50;15.50;;;;;;5074193;28;20388;-87
2022/08/30 02:46:33;;;;;;;2.35;2.15;;;24.40;29.20;;;;;;5074597;28;20036;-87
2022/08/30 02:49:00;;;;;;;3.35;2.40;;;24.40;20.20;;;;;;5074553;28;20028;-87
2022/08/30 02:51:25;;;;;;;4.13;2.50;;;24.30;22.70;;;;;;5092565;28;20030;-87
2022/08/30 02:53:51;;;;;;;4.15;2.70;;;24.40;20.40;;;;;;5092720;28;20033;-87
2022/08/30 02:56:17;;;;;;;4.88;2.40;;;24.30;25.20;;;;;;5092581;28;20028;-87
2022/08/30 02:58:43;;;;;;;2.95;2.45;;;24.20;26.70;;;;;;5092146;28;20027;-87
2022/08/30 03:01:12;;;;;;;3.45;2.45;;;24.20;35.60;;;;;;5092646;28;20024;-87
2022/08/30 03:03:39;;;;;;;3.50;2.70;;;24.20;42.40;;;;;;5092850;28;20473;-87
2022/08/30 03:06:04;;;;;;;4.03;2.60;;;24.10;28.90;;;;;;5096723;28;20484;-87
2022/08/30 03:08:31;;;;;;;3.45;2.70;;;24.10;28.30;;;;;;5096643;28;20078;-87
2022/08/30 03:10:57;;;;;;;2.83;2.28;;;24.10;26.00;;;;;;5096538;28;20047;-87
2022/08/30 03:13:23;;;;;;;3.88;2.70;;;24.10;34.30;;;;;;5096102;28;20064;-87
2022/08/30 03:15:50;;;;;;;4.55;2.30;;;24.00;26.00;;;;;;5096374;28;20358;-87
2022/08/30 03:18:20;;;;;;;4.25;2.78;;;24.00;32.40;;;;;;5096410;28;20396;-87
2022/08/30 03:20:47;;;;;;;3.72;2.50;;;24.00;27.70;;;;;;5096418;28;20017;-87
2022/08/30 03:23:13;;;;;;;3.10;2.50;;;23.90;35.70;;;;;;5096300;28;20031;-87
2022/08/30 03:25:38;;;;;;;3.35;2.53;;;23.70;24.80;;;;;;5096170;28;20028;-88
2022/08/30 03:28:05;;;;;;;4.75;2.50;;;23.60;20.90;;;;;;5096179;28;20032;-87
2022/08/30 03:30:31;;;;;;;3.38;2.30;;;23.70;23.20;;;;;;5096016;28;20043;-87
2022/08/30 03:32:56;;;;;;;3.67;2.60;;;23.70;20.40;;;;;;5095959;28;20040;-87
2022/08/30 03:35:22;;;;;;;2.70;2.33;;;23.80;20.50;;;;;;5096215;28;20024;-87
2022/08/30 03:37:48;;;;;;;4.97;3.13;;;23.90;21.80;;;;;;5095943;28;20036;-87
2022/08/30 03:40:16;;;;;;;3.78;2.78;;;23.90;21.90;;;;;;5095580;28;20035;-87
2022/08/30 03:42:43;;;;;;;2.80;2.60;;;24.00;26.50;;;;;;5096019;28;20036;-87
2022/08/30 03:45:08;;;;;;;2.95;2.67;;;24.00;24.40;;;;;;5095875;28;20021;-87
2022/08/30 03:47:35;;;;;;;3.75;2.63;;;23.90;22.40;;;;;;5095825;28;20082;-87
2022/08/30 03:50:01;;;;;;;5.10;2.70;;;23.80;20.90;;;;;;5095859;28;20095;-87
2022/08/30 03:52:27;;;;;;;4.30;2.72;;;23.80;21.90;;;;;;5095694;28;20111;-87
2022/08/30 03:54:52;;;;;;;4.30;2.72;;;23.70;22.70;;;;;;5095358;28;20450;-87
2022/08/30 03:57:18;;;;;;;3.50;2.67;;;23.60;23.20;;;;;;5095771;28;20039;-87
2022/08/30 03:59:43;;;;;;;4.63;2.75;;;23.60;23.60;;;;;;5095544;28;20034;-87
2022/08/30 04:02:09;;;;;;;3.53;2.85;;;23.60;23.40;;;;;;5095550;28;20107;-87
2022/08/30 04:04:35;;;;;;;3.97;2.90;;;23.50;26.00;;;;;;5095627;28;20063;-87
2022/08/30 04:07:00;;;;;;;4.35;2.60;;;23.60;27.70;;;;;;5095589;28;20469;-87
2022/08/30 04:09:26;;;;;;;5.18;2.97;;;23.60;21.30;;;;;;5095137;28;20024;-87
2022/08/30 04:11:51;;;;;;;2.88;2.50;;;23.70;22.20;;;;;;5095351;28;20043;-87
2022/08/30 04:14:17;;;;;;;4.20;2.95;;;23.70;27.40;;;;;;5094793;28;20035;-87
2022/08/30 04:16:43;;;;;;;5.40;3.10;;;23.70;23.10;;;;;;5094542;28;20031;-87
2022/08/30 04:19:09;;;;;;;4.25;2.92;;;23.70;26.80;;;;;;5077060;28;20024;-87
2022/08/30 04:21:35;;;;;;;4.15;2.80;;;23.70;26.30;;;;;;5095303;28;20515;-87
2022/08/30 04:24:01;;;;;;;4.63;2.85;;;23.70;27.30;;;;;;5094901;28;20095;-87
2022/08/30 04:26:27;;;;;;;4.22;2.70;;;23.80;26.40;;;;;;5095057;28;20028;-87
2022/08/30 04:28:54;;;;;;;4.20;2.70;;;23.70;30.00;;;;;;5094953;28;20094;-87
2022/08/30 04:31:20;;;;;;;4.30;2.92;;;23.80;31.80;;;;;;5094891;28;20135;-87
2022/08/30 04:33:46;;;;;;;4.25;2.88;;;23.70;27.30;;;;;;5094941;28;20399;-87
2022/08/30 04:36:12;;;;;;;3.30;2.75;;;23.70;31.60;;;;;;5094865;28;20032;-87
2022/08/30 04:38:39;;;;;;;4.93;3.00;;;23.80;32.70;;;;;;5094505;28;20024;-87
2022/08/30 04:41:11;;;;;;;4.88;2.75;;;23.70;31.70;;;;;;5094881;28;20031;-87
2022/08/30 04:43:38;;;;;;;4.53;2.92;;;23.70;28.80;;;;;;5094798;28;20099;-87
2022/08/30 04:46:06;;;;;;;4.50;3.00;;;23.70;30.10;;;;;;5094861;28;20048;-87
2022/08/30 04:48:33;;;;;;;4.05;3.00;;;23.80;31.00;;;;;;5094683;28;20073;-87
2022/08/30 04:50:58;;;;;;;6.78;3.28;;;23.70;36.20;;;;;;5094537;28;20100;-87
2022/08/30 04:53:24;;;;;;;5.45;2.97;;;23.70;31.10;;;;;;5094327;28;20488;-87
2022/08/30 04:55:49;;;;;;;5.40;3.15;;;23.70;27.10;;;;;;5094498;28;20035;-87
2022/08/30 04:58:16;;;;;;;4.32;2.92;;;23.60;26.40;;;;;;5094584;28;20031;-88
2022/08/30 05:00:44;;;;;;;4.05;2.88;;;23.60;31.70;;;;;;5094607;28;20020;-87
2022/08/30 05:03:11;;;;;;;8.13;4.53;;;23.60;27.10;;;;;;5094461;28;20032;-87
2022/08/30 05:05:40;;;;;;;6.63;3.72;;;23.70;32.90;;;;;;5094465;28;20082;-87
2022/08/30 05:08:07;;;;;;;4.53;3.15;;;23.70;28.00;;;;;;5093962;28;20035;-87
2022/08/30 05:10:33;;;;;;;3.83;3.47;;;23.70;35.20;;;;;;5094334;28;20389;-87
2022/08/30 05:12:59;;;;;;;5.78;3.40;;;23.70;32.20;;;;;;5094061;28;20039;-87
2022/08/30 05:15:25;;;;;;;5.28;3.50;;;23.70;23.50;;;;;;5093985;28;20469;-87
2022/08/30 05:17:50;;;;;;;3.85;3.55;;;23.80;21.90;;;;;;5094148;28;20028;-87
2022/08/30 05:20:16;;;;;;;8.02;3.40;;;23.80;22.90;;;;;;5075939;28;20028;-87
2022/08/30 05:22:48;;;;;;;5.22;3.65;;;23.80;22.70;;;;;;5093807;28;20048;-87
2022/08/30 05:25:16;;;;;;;5.63;3.20;;;23.80;28.20;;;;;;5094001;28;20049;-87
2022/08/30 05:27:41;;;;;;;5.38;3.80;;;23.90;33.40;;;;;;5093887;28;20066;-87
2022/08/30 05:30:08;;;;;;;4.07;3.67;;;23.90;36.70;;;;;;5093583;28;20020;-87
2022/08/30 05:32:33;;;;;;;5.07;3.78;;;24.00;36.30;;;;;;5075611;28;20044;-87
2022/08/30 05:34:59;;;;;;;7.82;4.15;;;23.90;31.90;;;;;;5093839;28;20473;-87
2022/08/30 05:37:25;;;;;;;5.03;3.65;;;23.80;27.60;;;;;;5093463;28;20491;-87
2022/08/30 05:39:50;;;;;;;6.55;3.90;;;23.90;51.70;;;;;;5075430;28;20457;-87
2022/08/30 05:42:16;;;;;;;8.38;5.00;;;24.00;30.00;;;;;;5093664;28;20519;-87
2022/08/30 05:44:41;;;;;;;6.43;4.50;;;24.00;30.00;;;;;;5075440;28;20028;-87
2022/08/30 05:47:07;;;;;;;4.80;4.07;;;24.00;28.50;;;;;;5093533;28;20020;-87
2022/08/30 05:49:33;;;;;;;5.07;3.90;;;24.00;28.30;;;;;;5093416;28;20114;-87
2022/08/30 05:51:58;;;;;;;4.10;3.60;;;24.10;23.30;;;;;;5074897;28;20054;-87
2022/08/30 05:54:24;;;;;;;5.22;4.10;;;24.10;30.30;;;;;;5093438;28;20024;-87
2022/08/30 05:56:49;;;;;;;4.53;4.00;;;24.10;19.90;;;;;;5093326;28;20037;-87
2022/08/30 05:59:15;;;;;;;6.75;4.40;;;24.10;30.50;;;;;;5093410;28;20035;-87
2022/08/30 06:01:44;;;;;;;7.63;4.25;;;24.20;32.50;;;;;;5093336;28;20103;-87
2022/08/30 06:04:12;;;;;;;6.47;4.20;;;24.20;54.40;;;;;;5093080;28;20081;-86
2022/08/30 06:06:40;;;;;;;6.22;4.63;;;24.40;23.40;;;;;;5093001;28;20031;-87
2022/08/30 06:09:08;;;;;;;7.47;4.53;;;24.40;54.00;;;;;;5093111;28;20115;-87
2022/08/30 06:11:34;;;;;;;5.00;4.50;;;24.40;52.00;;;;;;5093016;28;20028;-87
2022/08/30 06:14:00;;;;;;;7.03;4.50;;;24.50;43.00;;;;;;5093077;28;20099;-87
2022/08/30 06:16:27;;;;;;;4.82;4.40;;;24.50;42.00;;;;;;5093029;28;20397;-87
2022/08/30 06:18:54;;;;;;;4.85;4.45;;;24.50;39.30;;;;;;5092924;28;20024;-87
2022/08/30 06:21:24;;;;;;;9.70;4.32;;;24.50;44.30;;;;;;5092737;28;20103;-87
2022/08/30 06:23:51;;;;;;;5.03;4.53;;;24.50;16.40;;;;;;5092945;28;20028;-87
2022/08/30 06:26:17;;;;;;;5.53;5.03;;;24.50;51.90;;;;;;5092974;28;20020;-87
2022/08/30 06:28:43;;;;;;;6.93;4.63;;;24.40;52.40;;;;;;5092774;28;20026;-87
2022/08/30 06:31:10;;;;;;;10.18;4.75;;;24.40;33.30;;;;;;5092821;28;20040;-87
2022/08/30 06:33:37;;;;;;;6.43;4.93;;;24.40;30.40;;;;;;5092683;28;20039;-87
2022/08/30 06:36:03;;;;;;;7.82;4.90;;;24.40;40.60;;;;;;5092546;28;20075;-87
2022/08/30 06:38:29;;;;;;;10.93;4.80;;;24.50;42.20;;;;;;5092228;28;20024;-87
2022/08/30 06:40:54;;;;;;;7.13;5.00;;;24.60;49.60;;;;;;5092709;28;20465;-87
2022/08/30 06:43:20;;;;;;;7.80;5.00;;;24.70;38.80;;;;;;5092784;28;20024;-87
2022/08/30 06:45:46;;;;;;;6.63;4.80;;;24.70;40.70;;;;;;5074594;28;20032;-88
2022/08/30 06:48:11;;;;;;;6.60;4.72;;;24.80;39.10;;;;;;5074515;28;20036;-87
2022/08/30 06:50:37;;;;;;;7.18;5.10;;;24.80;39.10;;;;;;5092278;28;20020;-87
2022/08/30 06:53:04;;;;;;;5.82;4.55;;;24.90;40.30;;;;;;5092628;28;20119;-87
2022/08/30 06:55:33;;;;;;;9.25;4.55;;;24.90;38.10;;;;;;5092547;28;20027;-88
2022/08/30 06:58:03;;;;;;;5.90;4.32;;;24.90;39.40;;;;;;5092655;28;20397;-87
2022/08/30 07:00:29;;;;;;;9.02;4.80;;;25.10;40.90;;;;;;5091211;28;20048;-87
2022/08/30 07:02:56;;;;;;;8.43;4.63;;;25.10;40.60;;;;;;5092440;28;20062;-87
2022/08/30 07:05:22;;;;;;;8.27;5.00;;;25.30;32.30;;;;;;5092209;28;20422;-87
2022/08/30 07:07:49;;;;;;;12.73;5.20;;;25.10;38.30;;;;;;5092376;28;20060;-87
2022/08/30 07:10:16;;;;;;;8.40;5.03;;;25.00;42.50;;;;;;5092546;28;20480;-87
2022/08/30 07:12:42;;;;;;;8.23;5.03;;;25.10;36.80;;;;;;5074294;28;20428;-87
2022/08/30 07:15:08;;;;;;;12.95;5.65;;;25.10;40.30;;;;;;5092406;28;20020;-87
2022/08/30 07:20:20;;;;;;;7.80;4.93;;;24.90;34.00;;;;;;5092663;28;20034;-87
2022/08/30 07:22:46;;;;;;;10.32;5.60;;;25.00;29.10;;;;;;5092294;28;20036;-87
2022/08/30 07:25:12;;;;;;;8.63;5.03;;;25.00;31.60;;;;;;5092406;28;20034;-87
2022/08/30 07:27:37;;;;;;;9.73;5.25;;;25.00;28.30;;;;;;5092356;28;20106;-87
2022/08/30 07:30:05;;;;;;;12.98;5.43;;;25.00;19.20;;;;;;5092173;28;20016;-88
2022/08/30 07:32:30;;;;;;;6.47;4.78;;;25.00;24.40;;;;;;5091824;28;20493;-88
2022/08/30 07:34:56;;;;;;;8.18;5.30;;;25.00;42.80;;;;;;5092165;28;20020;-86
2022/08/30 07:37:22;;;;;;;7.93;4.80;;;25.00;47.40;;;;;;5092267;28;20020;-87
2022/08/30 07:39:48;;;;;;;7.13;4.70;;;25.00;52.00;;;;;;5092117;28;20521;-87
2022/08/30 07:42:15;;;;;;;6.65;4.50;;;25.10;55.50;;;;;;5092156;28;20024;-87
2022/08/30 07:44:40;;;;;;;6.57;4.20;;;25.10;52.70;;;;;;5092209;28;20393;-87
2022/08/30 07:47:06;;;;;;;9.95;4.28;;;25.00;50.70;;;;;;5091785;28;20021;-87
2022/08/30 07:49:31;;;;;;;8.13;5.20;;;24.90;53.40;;;;;;5092051;28;20028;-87
2022/08/30 07:51:57;;;;;;;5.00;4.28;;;25.00;52.30;;;;;;5094267;28;20039;-87
2022/08/30 07:54:23;;;;;;;5.35;4.45;;;25.20;40.50;;;;;;5095692;28;20035;-87
2022/08/30 07:56:48;;;;;;;6.75;4.75;;;25.50;26.10;;;;;;5095684;28;20024;-87
2022/08/30 07:59:14;;;;;;;7.70;4.47;;;25.70;29.80;;;;;;5095616;28;20028;-87
2022/08/30 08:01:40;;;;;;;6.65;4.10;;;26.10;38.90;;;;;;5095344;28;20024;-87
2022/08/30 08:04:05;;;;;;;4.55;3.30;;;26.60;19.30;;;;;;5095556;28;20107;-87
2022/08/30 08:06:31;;;;;;;6.10;3.83;;;26.90;10.50;;;;;;5095587;28;20102;-87
2022/08/30 08:09:01;;;;;;;7.18;4.03;;;26.90;16.70;;;;;;5095392;28;20439;-87
2022/08/30 08:11:28;;;;;;;4.20;3.75;;;27.00;18.10;;;;;;5095647;28;20511;-87
2022/08/30 08:13:54;;;;;;;5.63;3.63;;;27.40;20.10;;;;;;5095283;28;20031;-87
2022/08/30 08:16:22;;;;;;;8.05;3.83;;;27.50;14.10;;;;;;5095007;28;20059;-87
2022/08/30 08:18:47;;;;;;;4.63;3.80;;;27.20;19.40;;;;;;5095286;28;20032;-88
2022/08/30 08:21:13;;;;;;;5.50;3.42;;;27.10;12.50;;;;;;5095381;28;20181;-87
2022/08/30 08:23:38;;;;;;;5.65;3.90;;;27.20;17.10;;;;;;5095193;28;20024;-87
2022/08/30 08:26:04;;;;;;;8.48;3.58;;;27.80;17.90;;;;;;5095165;28;20392;-87
2022/08/30 08:28:30;;;;;;;4.00;3.28;;;28.30;21.70;;;;;;5094909;28;20032;-87
2022/08/30 08:30:56;;;;;;;3.85;3.30;;;28.50;19.20;;;;;;5094721;28;20060;-87
2022/08/30 08:33:22;;;;;;;4.57;3.65;;;28.40;27.00;;;;;;5094947;28;20036;-87
2022/08/30 08:35:48;;;;;;;6.03;3.22;;;28.10;16.90;;;;;;5095059;28;20109;-87
2022/08/30 08:38:14;;;;;;;5.70;3.08;;;28.50;17.50;;;;;;5094839;28;20020;-87
2022/08/30 08:41:00;;;;;;;4.45;3.15;;;29.00;13.50;;;;;;5094777;28;20081;-87
2022/08/30 08:43:26;;;;;;;5.70;3.35;;;29.00;20.60;;;;;;5080404;28;20040;-88
2022/08/30 08:46:00;;;;;;;4.25;3.30;;;29.10;13.80;;;;;;5094486;28;20024;-87
2022/08/30 08:48:48;;;;;;;4.13;3.50;;;29.00;28.80;;;;;;5094747;28;20028;-88
2022/08/30 08:54:31;;;;;;;3.83;3.28;;;29.30;24.80;;;;;;5095160;28;20100;-88
2022/08/30 08:56:58;;;;;;;4.75;3.03;;;29.40;23.60;;;;;;5094802;28;20150;-87
2022/08/30 08:59:23;;;;;;;4.97;2.83;;;29.80;28.50;;;;;;5094545;28;20043;-87
2022/08/30 09:01:49;;;;;;;3.35;2.55;;;29.50;20.00;;;;;;5094299;28;20481;-87
2022/08/30 09:04:29;;;;;;;4.07;2.50;;;29.20;19.40;;;;;;5094596;28;20051;-87
2022/08/30 09:07:05;;;;;;;4.00;2.90;;;29.10;24.70;;;;;;5076291;28;20024;-87
2022/08/30 09:09:34;;;;;;;4.90;2.58;;;29.00;22.70;;;;;;5094720;28;20113;-88
2022/08/30 09:12:01;;;;;;;2.83;2.63;;;29.10;24.10;;;;;;5094584;28;20031;-87
2022/08/30 09:14:33;;;;;;;3.10;2.80;;;29.20;25.50;;;;;;5093926;28;20032;-87
2022/08/30 09:17:05;;;;;;;3.72;2.55;;;29.60;25.30;;;;;;5094350;28;20066;-87
2022/08/30 09:19:42;;;;;;;3.25;2.60;;;29.60;25.60;;;;;;5094203;28;20047;-88
2022/08/30 09:22:19;;;;;;;3.90;2.95;;;29.50;26.90;;;;;;5094148;28;20451;-88
2022/08/30 09:24:48;;;;;;;3.00;2.70;;;29.10;24.20;;;;;;5094142;28;20035;-88
2022/08/30 09:27:29;;;;;;;5.07;2.80;;;29.50;27.90;;;;;;5093772;28;20023;-87
2022/08/30 09:30:05;;;;;;;6.43;2.92;;;29.00;26.00;;;;;;5093611;28;20028;-87
2022/08/30 09:32:40;;;;;;;2.83;2.63;;;29.50;25.50;;;;;;5094041;28;20109;-88
2022/08/30 09:35:10;;;;;;;3.20;2.90;;;29.60;25.50;;;;;;5094124;28;20028;-88
2022/08/30 09:37:43;;;;;;;3.70;2.75;;;29.80;22.00;;;;;;5093590;28;20103;-87
2022/08/30 09:40:19;;;;;;;2.63;2.40;;;30.00;25.20;;;;;;5094139;28;20024;-88
2022/08/30 09:43:08;;;;;;;3.58;2.90;;;29.90;26.30;;;;;;5093267;28;20024;-87
2022/08/30 09:45:39;;;;;;;3.53;2.83;;;30.30;22.50;;;;;;5093626;28;20095;-87
2022/08/30 09:48:27;;;;;;;3.80;3.10;;;30.30;20.90;;;;;;5093582;28;20051;-88
2022/08/30 09:51:11;;;;;;;4.28;3.03;;;30.00;23.00;;;;;;5094175;28;20024;-88
2022/08/30 09:53:57;;;;;;;3.90;2.88;;;30.30;22.90;;;;;;5094226;28;20125;-87
2022/08/30 09:56:49;;;;;;;3.85;3.08;;;30.50;22.40;;;;;;5079286;28;20043;-88
2022/08/30 09:59:36;;;;;;;3.10;2.90;;;30.30;29.00;;;;;;5092124;28;20028;-88
2022/08/30 10:02:30;;;;;;;7.03;3.33;;;30.30;26.30;;;;;;5093583;28;20020;-88
2022/08/30 10:05:08;;;;;;;5.28;3.10;;;30.50;28.60;;;;;;5093337;28;20373;-87
2022/08/30 10:07:45;;;;;;;3.78;3.40;;;30.80;24.30;;;;;;5093823;28;20032;-88
2022/08/30 10:10:29;;;;;;;6.35;3.67;;;30.10;20.70;;;;;;5093206;28;20028;-88
2022/08/30 10:13:12;;;;;;;4.90;3.30;;;29.80;24.20;;;;;;5092809;28;20111;-87
2022/08/30 10:15:46;;;;;;;4.55;3.58;;;29.70;29.40;;;;;;5092821;28;20477;-88
2022/08/30 10:18:30;;;;;;;5.50;3.45;;;29.40;29.30;;;;;;5093454;28;20481;-87
2022/08/30 10:21:11;;;;;;;6.80;4.10;;;29.20;24.30;;;;;;5093431;28;20374;-88
2022/08/30 10:23:41;;;;;;;5.00;4.00;;;28.80;25.40;;;;;;5093015;28;20024;-88
2022/08/30 10:26:31;;;;;;;5.43;4.10;;;28.50;24.90;;;;;;5092662;28;20361;-86
2022/08/30 10:29:22;;;;;;;5.47;4.00;;;28.20;23.90;;;;;;5092629;28;20542;-88
2022/08/30 10:31:58;;;;;;;4.93;4.10;;;27.90;26.80;;;;;;5092517;28;20158;-87
2022/08/30 10:34:48;;;;;;;4.20;3.80;;;27.70;25.40;;;;;;5092991;28;20090;-87
2022/08/30 10:37:20;;;;;;;6.82;4.35;;;27.50;26.50;;;;;;5093183;28;20042;-88
2022/08/30 10:41:11;;;;;;;8.20;5.40;;;27.40;11.70;;;;;;5092707;28;20024;-91
2022/08/30 10:42:50;;;;;;;16.20;6.88;;;27.00;17.60;;;;;;5092220;28;20056;-91
2022/08/30 10:45:17;;;;;;;12.80;7.10;;;26.70;23.80;;;;;;5093282;28;20432;-90
2022/08/30 10:48:05;;;;;;;11.38;6.88;;;26.30;12.90;;;;;;5092741;28;20028;-90
2022/08/30 10:50:41;;;;;;;9.68;7.28;;;25.80;17.30;;;;;;5092760;28;20036;-90
2022/08/30 10:53:14;;;;;;;21.05;8.85;;;25.10;34.20;;;;;;5092722;28;20032;-90
2022/08/30 10:55:59;;;;;;;14.98;5.97;;;24.90;28.60;;;;;;5092305;28;20388;-90
2022/08/30 10:58:25;;;;;;;7.57;4.00;;;24.40;37.60;;;;;;5092575;28;20028;-90
2022/08/30 11:00:56;;;;;;;5.55;3.08;;;23.50;19.70;;;;;;5074387;28;20018;-89
2022/08/30 11:03:43;;;;;;;10.40;4.07;;;23.30;34.50;;;;;;5092628;28;20054;-90
2022/08/30 11:06:50;;;;;;;6.85;2.83;;;23.60;32.00;;;;;;5092709;28;20090;-90
2022/08/30 11:09:27;;;;;;;14.77;5.15;;;23.70;39.60;;;;;;5010633;28;20034;-90
2022/08/30 11:12:34;;;;;;;11.70;5.57;;;23.60;34.30;;;;;;4994255;28;20483;-91
2022/08/30 11:15:19;;;;;;;7.07;4.40;;;23.80;26.20;;;;;;4972035;28;20057;-90
2022/08/30 11:17:53;;;;;;;5.80;3.97;;;24.10;28.10;;;;;;4971332;28;20480;-90
2022/08/30 11:20:43;;;;;;;10.13;5.20;;;24.30;26.90;;;;;;4971510;28;20122;-90
2022/08/30 11:23:28;;;;;;;11.77;4.70;;;24.60;26.70;;;;;;4971417;28;20034;-90
2022/08/30 11:25:58;;;;;;;5.50;4.03;;;24.80;36.00;;;;;;4973330;28;20144;-89
2022/08/30 11:28:35;;;;;;;7.47;4.18;;;24.70;45.90;;;;;;4975052;28;20031;-89
2022/08/30 11:31:08;;;;;;;7.03;3.53;;;24.70;32.90;;;;;;4974647;28;20142;-89
2022/08/30 11:33:48;;;;;;;7.85;4.03;;;24.70;30.20;;;;;;4974927;28;20058;-89
2022/08/30 11:36:34;;;;;;;5.95;3.90;;;24.80;37.60;;;;;;4958795;28;20038;-89
2022/08/30 11:39:09;;;;;;;7.00;3.60;;;24.90;42.80;;;;;;4974375;28;20043;-89
2022/08/30 11:41:35;;;;;;;9.55;3.72;;;24.90;42.40;;;;;;4974524;28;20443;-89
2022/08/30 11:44:15;;;;;;;4.75;3.45;;;25.10;40.60;;;;;;4979005;28;20046;-88
2022/08/30 11:46:42;;;;;;;5.50;3.55;;;24.80;40.20;;;;;;4994249;28;20475;-88
2022/08/30 11:49:13;;;;;;;4.68;3.38;;;25.00;37.80;;;;;;4977874;28;20071;-89
2022/08/30 11:51:50;;;;;;;5.63;3.58;;;25.10;47.80;;;;;;5031476;28;20122;-88
2022/08/30 11:54:27;;;;;;;6.40;3.67;;;25.50;34.00;;;;;;5075124;28;20503;-88
2022/08/30 11:57:01;;;;;;;4.40;3.17;;;25.50;39.90;;;;;;5075537;28;20025;-88
2022/08/30 11:59:34;;;;;;;6.15;3.35;;;26.10;44.30;;;;;;5075606;28;20025;-88
2022/08/30 12:02:00;;;;;;;4.50;2.80;;;30.40;39.80;;;;;;5075700;28;20032;-88
2022/08/30 12:04:46;;;;;;;5.93;2.88;;;36.50;42.70;;;;;;5075486;28;20411;-88
2022/08/30 12:07:51;;;;;;;6.90;2.97;;;39.80;53.10;;;;;;5075291;28;20063;-88
2022/08/30 12:10:35;;;;;;;5.75;3.08;;;38.90;55.20;;;;;;5014499;28;20042;-88
2022/08/30 12:13:00;;;;;;;4.13;2.83;;;39.40;67.20;;;;;;5013651;28;20423;-88
2022/08/30 12:15:51;;;;;;;5.05;3.25;;;40.80;50.10;;;;;;5013867;28;20052;-88
2022/08/30 12:18:29;;;;;;;6.07;3.65;;;42.90;55.00;;;;;;5013763;28;20034;-88
2022/08/30 12:21:20;;;;;;;4.30;3.22;;;43.80;45.00;;;;;;5014014;28;20030;-88
2022/08/30 12:23:49;;;;;;;5.78;4.10;;;43.00;42.70;;;;;;5005244;28;20065;-88
2022/08/30 12:26:31;;;;;;;5.75;4.28;;;42.70;33.60;;;;;;5013395;28;20080;-88
2022/08/30 12:29:27;;;;;;;6.03;4.22;;;41.80;44.30;;;;;;5013257;28;20049;-89
2022/08/30 12:31:59;;;;;;;7.50;4.53;;;43.30;51.70;;;;;;5012919;28;20535;-88
2022/08/30 12:34:35;;;;;;;5.47;4.50;;;42.40;50.50;;;;;;5013865;28;20058;-88
2022/08/30 12:37:09;;;;;;;5.45;4.95;;;41.90;52.60;;;;;;5012777;28;20030;-88
2022/08/30 12:39:44;;;;;;;6.43;4.90;;;41.70;50.80;;;;;;5013318;28;20510;-89
2022/08/30 12:42:24;;;;;;;7.15;4.78;;;41.20;48.70;;;;;;5012850;28;20132;-88
2022/08/30 12:44:52;;;;;;;6.28;5.38;;;43.60;45.00;;;;;;5013081;28;20053;-88
2022/08/30 12:47:26;;;;;;;7.53;4.68;;;44.10;44.30;;;;;;5041597;28;20068;-89
2022/08/30 12:49:53;;;;;;;6.05;5.28;;;45.60;43.00;;;;;;5074497;28;20016;-89
2022/08/30 12:52:23;;;;;;;5.82;5.25;;;46.30;38.90;;;;;;5074154;28;20025;-89
2022/08/30 12:54:49;;;;;;;6.78;5.53;;;45.50;35.80;;;;;;5074479;28;20025;-89
2022/08/30 12:58:00;;;;;;;9.10;5.45;;;43.70;40.00;;;;;;5074350;28;20055;-89
2022/08/30 13:00:29;;;;;;;8.02;5.43;;;45.10;36.60;;;;;;4992839;28;20573;-89
2022/08/30 13:02:58;;;;;;;5.97;5.38;;;44.50;36.60;;;;;;4992836;28;20046;-89
2022/08/30 13:05:45;;;;;;;6.90;5.32;;;43.90;32.40;;;;;;4992711;28;20034;-89
2022/08/30 13:08:24;;;;;;;5.85;5.35;;;45.50;31.90;;;;;;4992745;28;20157;-89